ΕΜΥ, Εθνική Μετεωρολογική Υπηρεσία - Δελτία Καιρού, Προγνώσεις

ΑΕΡΟΝΑΥΤΙΛΙΑ

GREEK AIRPORTS CODES

TAF LGAV 231700Z 2318/2418 36012KT 9999 FEW030 BECMG 2318/2320 27010KT=

EUROPEAN AIRPORTS CODES

LGTT 231900Z 00000KT CAVOK 04/02 Q1023=